KMSY 191153Z 00000KT 10SM FEW020 SCT150 BKN250 28/24 A3002 RMK AO2 SLP168 70003 T02780244 10278 20267 53011 $